Time;durP1;ratioP1;P1;durP2;ratioP2;P2;SDS_P1;SDS_P2;PMS_P1;PMS_P2;Temp;Humidity;BMP_temperature;BMP_pressure;BME280_temperature;BME280_humidity;BME280_pressure;Samples;Min_cycle;Max_cycle;Signal;HPM_P1;HPM_P2
2022/08/23 00:01:47;;;;;;;1.33;0.50;;;21.90;71.30;;;;;;4988604;28;20456;-90
2022/08/23 00:04:20;;;;;;;0.98;0.65;;;21.80;71.10;;;;;;4978319;28;20059;-90
2022/08/23 00:06:48;;;;;;;2.05;0.50;;;21.90;71.40;;;;;;5014906;28;20029;-92
2022/08/23 00:09:17;;;;;;;2.08;0.60;;;21.80;71.20;;;;;;5033143;28;20029;-92
2022/08/23 00:11:49;;;;;;;0.68;0.40;;;21.80;71.20;;;;;;5023695;28;20044;-93
2022/08/23 00:14:27;;;;;;;1.10;0.50;;;21.80;71.80;;;;;;5033412;28;20033;-93
2022/08/23 00:16:55;;;;;;;1.27;0.60;;;21.80;71.30;;;;;;5021263;28;20048;-89
2022/08/23 00:19:22;;;;;;;1.83;0.60;;;21.80;71.30;;;;;;4989752;28;20073;-95
2022/08/23 00:21:50;;;;;;;3.72;0.90;;;21.80;71.90;;;;;;4989180;28;20056;-92
2022/08/23 00:24:17;;;;;;;0.70;0.45;;;21.80;71.30;;;;;;5000783;28;20037;-92
2022/08/23 00:26:50;;;;;;;1.15;0.70;;;21.80;71.40;;;;;;5032140;28;20032;-92
2022/08/23 00:29:17;;;;;;;1.88;0.75;;;21.80;71.40;;;;;;5023739;28;20026;-93
2022/08/23 00:31:44;;;;;;;1.38;0.80;;;21.70;71.20;;;;;;5012117;28;20026;-92
2022/08/23 00:34:10;;;;;;;1.67;0.85;;;21.70;71.30;;;;;;5031095;28;20038;-92
2022/08/23 00:36:37;;;;;;;2.13;0.70;;;21.70;71.30;;;;;;4998285;28;20037;-93
2022/08/23 00:39:03;;;;;;;2.72;1.17;;;21.70;71.40;;;;;;5017888;28;20037;-92
2022/08/23 00:41:29;;;;;;;2.95;0.90;;;21.70;71.40;;;;;;5004442;28;20041;-93
2022/08/23 00:50:07;;;;;;;3.00;0.90;;;21.70;71.50;;;;;;4988988;28;20549;-93
2022/08/23 00:52:51;;;;;;;2.67;1.70;;;21.60;71.20;;;;;;5028823;28;20025;-93
2022/08/23 00:55:19;;;;;;;1.33;1.20;;;21.60;71.30;;;;;;5015585;28;20424;-93
2022/08/23 00:57:46;;;;;;;2.90;1.27;;;21.60;71.30;;;;;;5040519;28;20067;-91
2022/08/23 01:00:13;;;;;;;2.13;1.23;;;21.60;71.30;;;;;;5031355;28;20037;-92
2022/08/23 01:02:41;;;;;;;1.48;1.02;;;21.50;71.20;;;;;;5011537;28;20041;-92
2022/08/23 01:05:07;;;;;;;2.45;1.00;;;21.50;71.20;;;;;;4996732;28;20051;-94
2022/08/23 01:07:41;;;;;;;4.10;1.10;;;21.50;71.20;;;;;;5013094;28;20150;-92
2022/08/23 01:10:16;;;;;;;3.25;1.30;;;21.50;71.40;;;;;;5004533;28;20029;-94
2022/08/23 01:12:48;;;;;;;2.47;1.40;;;21.50;71.40;;;;;;5013168;28;20049;-93
2022/08/23 01:15:22;;;;;;;2.83;1.60;;;21.50;71.40;;;;;;5000891;28;20041;-92
2022/08/23 01:17:57;;;;;;;2.95;1.25;;;21.50;71.40;;;;;;5031136;28;20040;-92
2022/08/23 01:20:24;;;;;;;2.08;1.40;;;21.50;71.50;;;;;;5031103;28;20025;-92
2022/08/23 01:23:01;;;;;;;2.72;2.03;;;21.50;71.40;;;;;;5031437;28;20103;-93
2022/08/23 01:25:31;;;;;;;1.67;0.93;;;21.50;71.50;;;;;;5028956;28;20087;-93
2022/08/23 01:27:59;;;;;;;2.53;1.30;;;21.40;71.30;;;;;;5060067;28;20028;-94
2022/08/23 01:30:29;;;;;;;2.28;1.23;;;21.40;71.40;;;;;;5018758;28;20052;-94
2022/08/23 01:32:59;;;;;;;3.67;1.40;;;21.40;71.40;;;;;;5016559;28;20148;-92
2022/08/23 01:35:40;;;;;;;4.72;2.17;;;21.40;71.40;;;;;;4985621;28;20026;-94
2022/08/23 01:38:08;;;;;;;2.55;1.25;;;21.40;71.50;;;;;;4999011;28;20283;-93
2022/08/23 01:40:37;;;;;;;2.53;1.52;;;21.40;71.50;;;;;;5033371;28;20029;-91
2022/08/23 01:43:05;;;;;;;1.90;1.40;;;21.40;71.50;;;;;;4979704;28;20090;-90
2022/08/23 01:45:32;;;;;;;2.42;1.25;;;21.40;71.50;;;;;;5015853;28;20808;-90
2022/08/23 01:47:58;;;;;;;4.22;1.73;;;21.40;71.60;;;;;;4996020;28;20025;-92
2022/08/23 01:50:26;;;;;;;2.22;1.15;;;21.40;71.60;;;;;;5042494;28;20026;-94
2022/08/23 01:52:54;;;;;;;2.42;1.60;;;21.30;71.50;;;;;;5013948;28;20384;-95
2022/08/23 01:55:21;;;;;;;2.83;1.30;;;21.30;71.50;;;;;;5015065;28;20023;-94
2022/08/23 01:57:52;;;;;;;2.75;1.75;;;21.30;71.60;;;;;;5004220;28;20053;-94
2022/08/23 02:00:21;;;;;;;3.33;1.92;;;21.30;71.60;;;;;;5039477;28;20033;-93
2022/08/23 02:02:48;;;;;;;3.10;1.42;;;21.30;71.70;;;;;;4997305;28;20047;-92
2022/08/23 02:05:15;;;;;;;1.35;1.15;;;21.30;71.70;;;;;;5031034;28;20402;-93
2022/08/23 02:07:41;;;;;;;3.20;1.50;;;21.20;71.60;;;;;;5002889;28;20041;-92
2022/08/23 02:10:08;;;;;;;2.08;1.20;;;21.20;71.60;;;;;;5013270;28;20047;-92
2022/08/23 02:12:34;;;;;;;1.42;1.17;;;21.20;71.70;;;;;;5009537;28;20036;-93
2022/08/23 02:15:12;;;;;;;3.60;1.27;;;21.20;71.70;;;;;;4998298;28;20030;-92
2022/08/23 02:17:43;;;;;;;2.15;1.35;;;21.20;71.80;;;;;;5003186;28;20034;-92
2022/08/23 02:20:09;;;;;;;3.67;1.98;;;21.20;71.80;;;;;;4979145;28;20055;-90
2022/08/23 02:22:38;;;;;;;2.05;1.30;;;21.20;71.80;;;;;;5001649;28;20063;-92
2022/08/23 02:25:04;;;;;;;2.42;1.08;;;21.20;71.80;;;;;;5022985;28;20029;-91
2022/08/23 02:27:30;;;;;;;1.90;1.30;;;21.20;71.80;;;;;;5037564;28;20029;-92
2022/08/23 02:29:57;;;;;;;1.45;1.20;;;21.20;71.90;;;;;;5004641;28;20169;-91
2022/08/23 02:32:24;;;;;;;2.50;1.77;;;21.20;71.90;;;;;;5020207;28;20060;-89
2022/08/23 02:34:50;;;;;;;4.82;1.67;;;21.20;71.90;;;;;;4985459;28;20116;-92
2022/08/23 02:37:18;;;;;;;2.45;1.58;;;21.20;71.90;;;;;;5000372;28;20022;-90
2022/08/23 02:39:44;;;;;;;2.38;1.38;;;21.20;72.00;;;;;;5016647;28;20639;-92
2022/08/23 02:42:11;;;;;;;1.58;1.10;;;21.10;71.80;;;;;;5013742;28;20591;-94
2022/08/23 02:44:38;;;;;;;1.85;1.00;;;21.10;71.80;;;;;;5018841;28;20060;-94
2022/08/23 02:47:07;;;;;;;2.00;1.33;;;21.20;72.00;;;;;;5000988;28;20034;-93
2022/08/23 02:49:35;;;;;;;2.08;1.27;;;21.10;72.40;;;;;;4983414;28;20047;-92
2022/08/23 02:52:05;;;;;;;2.38;1.15;;;21.10;71.80;;;;;;5016002;28;20083;-92
2022/08/23 02:54:33;;;;;;;2.00;1.00;;;21.10;71.90;;;;;;4992726;28;20029;-92
2022/08/23 02:56:59;;;;;;;1.30;1.05;;;21.10;71.90;;;;;;5033111;28;20259;-93
2022/08/23 02:59:25;;;;;;;2.35;1.27;;;21.10;71.90;;;;;;5023352;28;20113;-92
2022/08/23 03:01:51;;;;;;;1.65;1.15;;;21.10;71.90;;;;;;5004951;28;20572;-94
2022/08/23 03:04:24;;;;;;;2.75;1.05;;;21.10;71.90;;;;;;5032128;28;20123;-93
2022/08/23 03:06:50;;;;;;;1.10;1.00;;;21.10;71.90;;;;;;5030658;28;20037;-94
2022/08/23 03:09:16;;;;;;;1.48;1.27;;;21.10;71.90;;;;;;5015861;28;20033;-93
2022/08/23 03:11:48;;;;;;;2.72;1.35;;;21.10;72.00;;;;;;5021961;28;20029;-93
2022/08/23 03:14:15;;;;;;;;;;;21.10;72.00;;;;;;5000524;28;20430;-92
2022/08/23 03:16:42;;;;;;;1.90;1.60;;;21.00;71.70;;;;;;5004969;28;19913;-95
2022/08/23 03:19:08;;;;;;;2.35;1.25;;;21.00;71.60;;;;;;5029679;28;20051;-92
2022/08/23 03:21:35;;;;;;;3.38;1.58;;;21.00;71.70;;;;;;5043355;28;20238;-94
2022/08/23 03:24:01;;;;;;;1.83;1.73;;;21.00;71.80;;;;;;5021861;28;20052;-94
2022/08/23 03:26:28;;;;;;;2.75;1.45;;;21.00;71.90;;;;;;5021563;28;20167;-93
2022/08/23 03:28:54;;;;;;;2.08;1.20;;;21.00;71.90;;;;;;4997247;28;20030;-94
2022/08/23 03:31:21;;;;;;;2.10;1.40;;;21.00;71.90;;;;;;4995351;28;20265;-93
2022/08/23 03:33:58;;;;;;;2.05;1.25;;;21.00;71.90;;;;;;5037818;28;20029;-92
2022/08/23 03:36:25;;;;;;;3.47;2.00;;;20.90;71.80;;;;;;4995149;28;20044;-94
2022/08/23 03:38:51;;;;;;;1.98;1.42;;;21.00;72.00;;;;;;5022068;28;20048;-93
2022/08/23 03:41:18;;;;;;;3.25;1.60;;;21.00;72.00;;;;;;5032646;28;20033;-93
2022/08/23 03:43:44;;;;;;;4.47;1.88;;;21.00;72.10;;;;;;4996476;28;20495;-93
2022/08/23 03:46:21;;;;;;;2.75;1.63;;;20.90;71.90;;;;;;5036997;28;20074;-92
2022/08/23 03:48:55;;;;;;;2.67;1.95;;;20.90;71.90;;;;;;5003992;28;20033;-94
2022/08/23 03:51:23;;;;;;;4.00;2.80;;;20.90;71.90;;;;;;5004694;28;20033;-94
2022/08/23 03:53:49;;;;;;;3.05;1.90;;;20.90;71.90;;;;;;5013366;28;20040;-93
2022/08/23 03:56:28;;;;;;;4.05;2.33;;;20.90;71.90;;;;;;5035026;28;20106;-93
2022/08/23 03:58:59;;;;;;;3.15;1.95;;;20.90;71.90;;;;;;4999074;28;20167;-94
2022/08/23 04:01:25;;;;;;;2.20;1.60;;;20.90;71.90;;;;;;5024376;28;20416;-95
2022/08/23 04:03:51;;;;;;;2.17;1.98;;;20.90;71.90;;;;;;5010217;28;20029;-93
2022/08/23 04:06:18;;;;;;;2.42;1.95;;;20.80;71.80;;;;;;5032925;28;20036;-93
2022/08/23 04:08:45;;;;;;;2.88;1.98;;;20.80;71.80;;;;;;5000340;28;20030;-94
2022/08/23 04:11:13;;;;;;;3.20;1.83;;;20.80;71.80;;;;;;4998278;28;20040;-92
2022/08/23 04:13:48;;;;;;;2.55;2.35;;;20.80;71.90;;;;;;5037267;28;20029;-94
2022/08/23 04:16:14;;;;;;;2.10;1.90;;;20.70;71.70;;;;;;5012150;28;20379;-91
2022/08/23 04:18:40;;;;;;;3.20;1.95;;;20.70;71.70;;;;;;5005474;28;20722;-90
2022/08/23 04:21:09;;;;;;;2.10;1.90;;;20.70;71.80;;;;;;5018039;28;20130;-90
2022/08/23 04:23:37;;;;;;;1.90;1.77;;;20.70;71.90;;;;;;5003636;28;20050;-88
2022/08/23 04:26:05;;;;;;;3.35;2.35;;;20.60;71.70;;;;;;5023487;28;20032;-91
2022/08/23 04:28:33;;;;;;;2.50;2.30;;;20.60;71.80;;;;;;5006912;28;20060;-93
2022/08/23 04:31:01;;;;;;;2.95;2.03;;;20.50;71.60;;;;;;4985230;28;20029;-89
2022/08/23 04:33:30;;;;;;;2.55;1.98;;;20.50;71.70;;;;;;5021623;28;20026;-92
2022/08/23 04:35:57;;;;;;;3.10;2.28;;;20.40;71.60;;;;;;4988490;28;20029;-93
2022/08/23 04:38:23;;;;;;;3.08;2.35;;;20.40;71.70;;;;;;5013784;28;20137;-93
2022/08/23 04:43:34;;;;;;;3.10;2.22;;;20.30;71.70;;;;;;5041744;28;20125;-92
2022/08/23 04:46:01;;;;;;;2.95;2.50;;;20.30;71.70;;;;;;5000720;28;20546;-93
2022/08/23 04:48:34;;;;;;;3.07;2.43;;;20.30;71.80;;;;;;5004867;28;20041;-93
2022/08/23 04:51:00;;;;;;;3.33;2.28;;;20.20;71.60;;;;;;5026259;28;20633;-93
2022/08/23 04:53:29;;;;;;;2.70;2.17;;;20.20;71.70;;;;;;5008135;28;20292;-93
2022/08/23 04:56:22;;;;;;;2.20;2.05;;;20.10;71.60;;;;;;4992041;28;20029;-92
2022/08/23 04:58:49;;;;;;;2.63;2.30;;;20.20;71.70;;;;;;5005282;28;20045;-93
2022/08/23 05:01:15;;;;;;;2.33;2.00;;;20.10;71.60;;;;;;5015461;28;20059;-93
2022/08/23 05:03:43;;;;;;;4.65;2.40;;;20.10;71.70;;;;;;5022224;28;20037;-92
2022/08/23 05:06:10;;;;;;;4.03;2.58;;;20.00;71.60;;;;;;5004130;28;20033;-93
2022/08/23 05:08:39;;;;;;;2.33;2.00;;;20.00;71.60;;;;;;5000514;28;20404;-93
2022/08/23 05:11:07;;;;;;;3.92;2.63;;;19.90;71.50;;;;;;5028532;23;20049;-73
2022/08/23 05:13:34;;;;;;;2.50;1.88;;;19.90;72.20;;;;;;5042439;28;20025;-73
2022/08/23 05:16:02;;;;;;;3.05;2.28;;;19.80;71.50;;;;;;5044969;28;20029;-74
2022/08/23 05:18:33;;;;;;;4.22;2.40;;;19.80;71.50;;;;;;5042334;28;20021;-73
2022/08/23 05:20:59;;;;;;;2.75;2.22;;;19.80;71.60;;;;;;5041609;28;20029;-72
2022/08/23 05:23:26;;;;;;;5.20;2.75;;;19.80;71.60;;;;;;5042350;28;20506;-73
2022/08/23 05:26:00;;;;;;;7.93;3.33;;;19.80;71.60;;;;;;5042318;28;20371;-74
2022/08/23 05:28:35;;;;;;;2.88;2.35;;;19.80;71.60;;;;;;5044686;28;20094;-72
2022/08/23 05:31:15;;;;;;;4.22;2.60;;;19.80;71.60;;;;;;5027483;28;20037;-74
2022/08/23 05:33:57;;;;;;;3.45;2.35;;;19.80;71.60;;;;;;5041045;28;20067;-74
2022/08/23 05:36:44;;;;;;;3.88;2.67;;;19.80;71.60;;;;;;5042229;28;20028;-75
2022/08/23 05:39:10;;;;;;;4.88;3.15;;;19.80;71.50;;;;;;5059224;28;20033;-75
2022/08/23 05:41:39;;;;;;;4.93;2.75;;;19.80;71.50;;;;;;5026590;28;20117;-73
2022/08/23 05:44:09;;;;;;;3.97;2.45;;;19.80;71.50;;;;;;5025883;28;20111;-76
2022/08/23 05:46:36;;;;;;;3.30;2.10;;;19.80;71.50;;;;;;5046623;28;20057;-72
2022/08/23 05:49:25;;;;;;;3.33;2.60;;;19.80;71.70;;;;;;5044125;28;20462;-74
2022/08/23 05:51:51;;;;;;;7.68;4.40;;;19.90;72.30;;;;;;5043579;28;20079;-74
2022/08/23 05:54:19;;;;;;;6.25;3.50;;;19.90;72.90;;;;;;5043279;28;20017;-75
2022/08/23 05:56:53;;;;;;;3.55;2.80;;;20.00;73.40;;;;;;5042740;28;20036;-74
2022/08/23 05:59:19;;;;;;;8.50;3.58;;;20.00;73.70;;;;;;5042321;28;20107;-74
2022/08/23 06:01:45;;;;;;;3.60;3.22;;;20.10;74.20;;;;;;5042318;28;20039;-74
2022/08/23 06:04:15;;;;;;;5.03;3.13;;;20.10;74.40;;;;;;5042798;28;20039;-74
2022/08/23 06:06:43;;;;;;;5.85;3.58;;;20.10;74.60;;;;;;5026270;28;20433;-73
2022/08/23 06:09:13;;;;;;;4.70;3.42;;;20.20;74.90;;;;;;5026601;28;20029;-73
2022/08/23 06:11:43;;;;;;;5.80;2.55;;;20.20;75.00;;;;;;5006613;28;20182;-73
2022/08/23 06:14:10;;;;;;;3.03;2.72;;;20.30;75.10;;;;;;5043367;28;20028;-74
2022/08/23 06:16:39;;;;;;;5.93;3.22;;;20.40;75.20;;;;;;5042409;28;20021;-71
2022/08/23 06:19:08;;;;;;;4.45;2.85;;;20.50;75.30;;;;;;5041929;28;20029;-73
2022/08/23 06:21:54;;;;;;;4.15;2.55;;;20.60;75.30;;;;;;5043191;28;20505;-74
2022/08/23 06:24:28;;;;;;;5.47;2.92;;;20.80;75.20;;;;;;5027266;28;20052;-73
2022/08/23 06:27:10;;;;;;;4.15;2.75;;;20.90;74.90;;;;;;5041810;28;20031;-73
2022/08/23 06:29:37;;;;;;;3.35;2.58;;;21.00;74.50;;;;;;5041712;28;20033;-73
2022/08/23 06:32:23;;;;;;;3.72;2.50;;;21.10;74.40;;;;;;5033114;28;20048;-72
2022/08/23 06:35:12;;;;;;;4.88;2.65;;;21.10;74.10;;;;;;5036501;28;20041;-73
2022/08/23 06:37:48;;;;;;;4.30;2.83;;;21.10;73.90;;;;;;5038720;28;20668;-73
2022/08/23 06:40:43;;;;;;;3.63;2.38;;;21.10;73.80;;;;;;5037314;28;20032;-75
2022/08/23 06:43:37;;;;;;;3.90;2.55;;;21.10;73.60;;;;;;5035718;28;20057;-76
2022/08/23 06:46:20;;;;;;;2.75;2.17;;;21.20;73.50;;;;;;5036441;28;20040;-73
2022/08/23 06:48:47;;;;;;;3.10;2.25;;;21.20;73.20;;;;;;5038751;28;20079;-72
2022/08/23 06:51:42;;;;;;;3.90;2.20;;;21.30;73.20;;;;;;5040017;28;20428;-74
2022/08/23 06:54:19;;;;;;;3.58;2.22;;;21.30;72.90;;;;;;5040171;28;20055;-72
2022/08/23 06:57:08;;;;;;;4.80;2.63;;;21.30;72.70;;;;;;5023523;28;20033;-74
2022/08/23 07:00:00;;;;;;;3.75;2.83;;;21.30;72.60;;;;;;5029538;28;20341;-73
2022/08/23 07:02:52;;;;;;;3.00;2.13;;;21.30;72.70;;;;;;5039839;28;20033;-73
2022/08/23 07:05:37;;;;;;;5.18;2.55;;;21.30;72.60;;;;;;5041070;28;20032;-72
2022/08/23 07:08:12;;;;;;;5.85;2.25;;;21.30;72.50;;;;;;5024759;28;20427;-73
2022/08/23 07:10:38;;;;;;;2.17;1.98;;;21.40;72.60;;;;;;5023984;28;20067;-72
2022/08/23 07:13:04;;;;;;;4.32;2.33;;;21.40;72.40;;;;;;5039585;28;20037;-73
2022/08/23 07:15:31;;;;;;;2.53;2.03;;;21.40;72.30;;;;;;5041134;28;20052;-72
2022/08/23 07:17:57;;;;;;;4.72;2.33;;;21.40;72.20;;;;;;5039900;28;20451;-71
2022/08/23 07:20:23;;;;;;;2.40;2.20;;;21.50;72.30;;;;;;5042266;28;20017;-75
2022/08/23 07:22:49;;;;;;;2.92;2.22;;;21.50;72.30;;;;;;5024176;28;20033;-74
2022/08/23 07:25:15;;;;;;;3.05;1.95;;;21.50;72.20;;;;;;5024486;28;20473;-72
2022/08/23 07:27:44;;;;;;;3.17;1.83;;;21.50;72.10;;;;;;5037672;28;20495;-72
2022/08/23 07:30:13;;;;;;;4.68;2.15;;;21.60;72.20;;;;;;5041124;28;20025;-73
2022/08/23 07:32:39;;;;;;;4.60;2.60;;;21.60;72.10;;;;;;5039864;28;20036;-72
2022/08/23 07:35:34;;;;;;;3.47;2.17;;;21.60;72.00;;;;;;5037976;28;20496;-73
2022/08/23 07:38:01;;;;;;;3.78;2.38;;;21.70;71.90;;;;;;5042608;28;20036;-74
2022/08/23 07:40:33;;;;;;;2.92;2.08;;;21.80;71.90;;;;;;5049423;28;20420;-75
2022/08/23 07:43:02;;;;;;;2.00;1.75;;;21.80;71.70;;;;;;5031107;28;20127;-76
2022/08/23 07:45:28;;;;;;;4.30;1.70;;;21.80;71.60;;;;;;5049069;28;20063;-76
2022/08/23 07:48:00;;;;;;;1.98;1.80;;;21.80;71.60;;;;;;5044573;28;20024;-75
2022/08/23 07:50:28;;;;;;;4.95;2.00;;;21.90;71.70;;;;;;5047652;28;20037;-72
2022/08/23 07:52:54;;;;;;;3.20;1.60;;;21.90;71.70;;;;;;5044433;28;20434;-72
2022/08/23 07:55:20;;;;;;;2.53;1.90;;;22.00;71.80;;;;;;5046580;28;20036;-74
2022/08/23 07:58:12;;;;;;;3.05;1.85;;;21.90;71.60;;;;;;5041640;28;20017;-72
2022/08/23 08:00:50;;;;;;;2.35;1.70;;;21.90;71.50;;;;;;5037250;28;20029;-73
2022/08/23 08:03:39;;;;;;;3.83;2.20;;;22.00;71.70;;;;;;5044301;28;20045;-74
2022/08/23 08:06:21;;;;;;;3.50;2.38;;;22.00;71.60;;;;;;5027234;28;20040;-73
2022/08/23 08:08:48;;;;;;;4.18;2.70;;;22.10;71.70;;;;;;5028101;28;20033;-76
2022/08/23 08:11:19;;;;;;;4.18;2.42;;;22.20;71.70;;;;;;5044052;28;20049;-73
2022/08/23 08:13:47;;;;;;;4.63;2.03;;;22.30;71.60;;;;;;5043887;28;20115;-72
2022/08/23 08:16:27;;;;;;;2.35;1.88;;;22.50;71.50;;;;;;5044718;28;20021;-73
2022/08/23 08:18:55;;;;;;;3.75;2.42;;;22.70;71.40;;;;;;5043335;28;20033;-73
2022/08/23 08:21:41;;;;;;;4.10;1.73;;;22.90;71.30;;;;;;5045707;28;20158;-74
2022/08/23 08:24:45;;;;;;;2.45;1.85;;;23.10;71.20;;;;;;5046134;28;20450;-72
2022/08/23 08:27:12;;;;;;;1.73;1.60;;;23.20;71.00;;;;;;5044771;28;20086;-73
2022/08/23 08:29:39;;;;;;;1.70;1.60;;;23.20;70.80;;;;;;5044633;28;20122;-74
2022/08/23 08:32:07;;;;;;;3.17;2.15;;;23.30;71.00;;;;;;5042542;28;20040;-72
2022/08/23 08:34:33;;;;;;;2.20;1.50;;;23.30;71.00;;;;;;5028328;28;20035;-75
2022/08/23 08:37:00;;;;;;;2.00;1.60;;;23.30;70.90;;;;;;5044246;28;20028;-74
2022/08/23 08:39:30;;;;;;;2.35;1.58;;;23.40;71.00;;;;;;5044420;28;20031;-71
2022/08/23 08:42:19;;;;;;;1.73;1.27;;;23.50;71.00;;;;;;5043119;28;20174;-74
2022/08/23 08:44:59;;;;;;;1.83;1.58;;;23.60;70.90;;;;;;5043105;28;20033;-72
2022/08/23 08:47:57;;;;;;;2.38;1.80;;;23.70;70.90;;;;;;5043485;28;20439;-75
2022/08/23 08:50:43;;;;;;;3.33;1.52;;;23.80;70.90;;;;;;5010276;28;20334;-72
2022/08/23 08:53:18;;;;;;;3.20;1.67;;;23.90;70.90;;;;;;5043661;28;20483;-72
2022/08/23 08:55:59;;;;;;;3.33;2.10;;;23.90;70.80;;;;;;5042175;28;20037;-74
2022/08/23 08:58:32;;;;;;;1.67;1.58;;;24.00;70.70;;;;;;5032908;28;20035;-75
2022/08/23 09:00:58;;;;;;;1.48;1.25;;;24.10;70.70;;;;;;5025918;28;20516;-72
2022/08/23 09:03:31;;;;;;;1.05;0.90;;;24.20;70.70;;;;;;5043425;28;20099;-72
2022/08/23 09:06:35;;;;;;;3.30;1.73;;;24.30;70.70;;;;;;5027937;28;20492;-73
2022/08/23 09:09:45;;;;;;;1.95;1.10;;;24.50;70.60;;;;;;5015608;28;20578;-73
2022/08/23 09:12:48;;;;;;;1.35;1.10;;;24.70;70.50;;;;;;5040627;28;20029;-72
2022/08/23 09:15:22;;;;;;;1.50;1.05;;;24.80;70.40;;;;;;5025077;28;20044;-75
2022/08/23 09:17:57;;;;;;;1.45;1.05;;;24.80;70.30;;;;;;5042113;28;20031;-74
2022/08/23 09:20:30;;;;;;;1.30;1.20;;;24.90;70.40;;;;;;5043901;28;20391;-73
2022/08/23 09:23:07;;;;;;;1.65;1.10;;;25.00;70.40;;;;;;5044859;28;20032;-74
2022/08/23 09:25:36;;;;;;;1.92;1.20;;;25.10;70.30;;;;;;5043965;28;20414;-73
2022/08/23 09:28:17;;;;;;;1.63;0.80;;;25.20;70.00;;;;;;5039423;28;20029;-73
2022/08/23 09:30:55;;;;;;;0.90;0.65;;;25.50;69.60;;;;;;5044977;28;20032;-72
2022/08/23 09:33:51;;;;;;;0.68;0.68;;;25.70;69.30;;;;;;5041608;28;20090;-74
2022/08/23 09:36:39;;;;;;;2.30;1.15;;;25.90;68.90;;;;;;5027160;28;20033;-74
2022/08/23 09:39:31;;;;;;;1.10;0.82;;;26.00;68.50;;;;;;5042783;28;20070;-73
2022/08/23 09:42:01;;;;;;;1.40;0.82;;;26.20;68.20;;;;;;5041783;28;20384;-72
2022/08/23 09:44:39;;;;;;;1.10;1.00;;;26.20;68.10;;;;;;5043104;28;20415;-72
2022/08/23 09:47:15;;;;;;;1.10;0.68;;;26.40;68.40;;;;;;5041709;28;20114;-73
2022/08/23 09:49:47;;;;;;;1.10;0.73;;;26.60;67.70;;;;;;5026276;28;20021;-72
2022/08/23 09:52:21;;;;;;;0.73;0.73;;;26.80;67.20;;;;;;5042480;28;20151;-72
2022/08/23 09:55:03;;;;;;;0.70;0.70;;;27.00;66.80;;;;;;5042813;28;20037;-72
2022/08/23 09:57:33;;;;;;;0.82;0.80;;;27.20;66.40;;;;;;5007318;28;20602;-74
2022/08/23 10:00:16;;;;;;;0.63;0.63;;;27.40;66.00;;;;;;5042065;28;20380;-75
2022/08/23 10:02:43;;;;;;;0.80;0.80;;;27.60;65.50;;;;;;5023837;28;20048;-74
2022/08/23 10:05:17;;;;;;;0.82;0.70;;;27.80;65.40;;;;;;5042687;28;20035;-74
2022/08/23 10:07:59;;;;;;;0.77;0.77;;;28.00;65.00;;;;;;5040353;28;20128;-74
2022/08/23 10:10:25;;;;;;;1.15;0.65;;;28.20;64.50;;;;;;5038855;28;20043;-72
2022/08/23 10:12:55;;;;;;;0.82;0.50;;;28.40;64.30;;;;;;5040931;28;20028;-71
2022/08/23 10:15:52;;;;;;;0.95;0.65;;;28.60;63.90;;;;;;5043903;28;20040;-74
2022/08/23 10:18:43;;;;;;;1.35;0.57;;;28.80;63.40;;;;;;5040878;28;20043;-73
2022/08/23 10:21:31;;;;;;;1.27;0.60;;;29.00;63.00;;;;;;5042538;28;20037;-71
2022/08/23 10:24:31;;;;;;;0.50;0.50;;;29.00;62.60;;;;;;5042847;28;20029;-72
2022/08/23 10:30:26;;;;;;;0.73;0.50;;;28.90;62.70;;;;;;5003971;28;20029;-73
2022/08/23 10:33:19;;;;;;;0.98;0.60;;;28.90;62.80;;;;;;5038572;28;20033;-73
2022/08/23 10:36:18;;;;;;;0.88;0.68;;;28.80;62.60;;;;;;5041917;28;20013;-72
2022/08/23 10:39:02;;;;;;;0.93;0.57;;;28.90;62.60;;;;;;5041934;28;20043;-72
2022/08/23 10:41:59;;;;;;;1.15;0.90;;;29.00;62.40;;;;;;5043169;28;20586;-73
2022/08/23 10:44:32;;;;;;;1.27;0.65;;;29.10;62.20;;;;;;5041802;28;20079;-72
2022/08/23 10:47:24;;;;;;;0.82;0.47;;;29.10;62.10;;;;;;5041116;28;20099;-72
2022/08/23 10:49:52;;;;;;;1.25;0.50;;;29.20;61.80;;;;;;5008180;28;20127;-72
2022/08/23 10:52:35;;;;;;;0.55;0.40;;;29.30;61.80;;;;;;5041905;28;20032;-72
2022/08/23 10:55:16;;;;;;;2.47;0.65;;;29.30;61.30;;;;;;5051024;28;20037;-72
2022/08/23 10:57:46;;;;;;;7.65;0.90;;;29.30;61.20;;;;;;5045488;28;20021;-74
2022/08/23 11:00:21;;;;;;;0.70;0.52;;;29.30;61.00;;;;;;5043775;28;20037;-73
2022/08/23 11:03:24;;;;;;;3.22;0.68;;;29.30;60.80;;;;;;5043898;28;20037;-75
2022/08/23 11:06:22;;;;;;;1.50;0.70;;;29.40;60.70;;;;;;5042501;28;20025;-72
2022/08/23 11:09:00;;;;;;;1.73;0.70;;;29.50;60.70;;;;;;5041013;28;20273;-72
2022/08/23 11:12:02;;;;;;;1.13;0.50;;;29.60;60.60;;;;;;5040990;28;20055;-74
2022/08/23 11:15:18;;;;;;;1.27;0.57;;;29.80;60.10;;;;;;5042563;28;20388;-74
2022/08/23 11:17:48;;;;;;;2.33;0.73;;;29.90;59.80;;;;;;4978186;28;20036;-73
2022/08/23 11:20:49;;;;;;;1.23;0.50;;;30.10;59.60;;;;;;5041898;28;20025;-75
2022/08/23 11:23:38;;;;;;;0.70;0.70;;;30.30;59.00;;;;;;5040900;28;20373;-73
2022/08/23 11:26:08;;;;;;;1.17;0.77;;;30.50;58.60;;;;;;5024959;28;20485;-73
2022/08/23 11:28:45;;;;;;;0.60;0.52;;;30.80;58.30;;;;;;5042288;28;20113;-75
2022/08/23 11:31:31;;;;;;;0.50;0.45;;;31.00;57.60;;;;;;5025298;28;20052;-75
2022/08/23 11:34:11;;;;;;;0.80;0.50;;;31.20;57.20;;;;;;5042119;28;20078;-73
2022/08/23 11:36:38;;;;;;;2.80;0.52;;;31.40;57.00;;;;;;5042301;28;20463;-74
2022/08/23 11:39:09;;;;;;;1.23;0.55;;;31.40;56.80;;;;;;5043714;28;20025;-72
2022/08/23 11:41:55;;;;;;;1.85;0.90;;;31.50;56.60;;;;;;5027729;28;20037;-75
2022/08/23 11:44:33;;;;;;;1.98;0.75;;;31.70;56.00;;;;;;5053840;28;20113;-73
2022/08/23 11:47:04;;;;;;;0.95;0.70;;;31.80;55.90;;;;;;5042862;28;20025;-75
2022/08/23 11:50:02;;;;;;;0.95;0.60;;;31.90;55.60;;;;;;5044494;28;20467;-75
2022/08/23 11:52:46;;;;;;;1.85;0.60;;;32.10;55.20;;;;;;5045588;28;20023;-73
2022/08/23 11:55:38;;;;;;;1.80;0.60;;;32.20;55.10;;;;;;5044581;28;20040;-72
2022/08/23 11:58:16;;;;;;;0.70;0.40;;;32.40;54.50;;;;;;5026503;28;20037;-74
2022/08/23 12:00:51;;;;;;;1.10;0.70;;;32.60;54.50;;;;;;5044943;28;20038;-72
2022/08/23 12:03:32;;;;;;;1.10;0.60;;;32.70;54.20;;;;;;5043787;28;20035;-73
2022/08/23 12:06:11;;;;;;;1.73;0.63;;;32.70;53.90;;;;;;5043767;28;20036;-75
2022/08/23 12:08:36;;;;;;;1.77;0.77;;;32.80;53.90;;;;;;5042587;28;20383;-73
2022/08/23 12:11:09;;;;;;;1.08;0.77;;;32.90;53.90;;;;;;5041718;28;20041;-73
2022/08/23 12:13:49;;;;;;;0.82;0.70;;;32.90;53.50;;;;;;5040790;28;20029;-75
2022/08/23 12:16:15;;;;;;;0.52;0.45;;;32.90;53.30;;;;;;5041538;28;20029;-73
2022/08/23 12:18:53;;;;;;;2.70;0.88;;;32.90;53.40;;;;;;5041538;28;20029;-75
2022/08/23 12:21:44;;;;;;;1.25;0.68;;;33.00;53.10;;;;;;5041031;28;20390;-73
2022/08/23 12:24:38;;;;;;;0.80;0.50;;;33.00;52.80;;;;;;5041844;28;20094;-72
2022/08/23 12:27:07;;;;;;;1.08;0.60;;;33.10;52.80;;;;;;5041086;28;20033;-74
2022/08/23 12:30:01;;;;;;;1.10;0.50;;;33.10;52.90;;;;;;5041188;28;20033;-73
2022/08/23 12:32:52;;;;;;;0.73;0.50;;;33.10;52.60;;;;;;5039630;28;20113;-73
2022/08/23 12:35:33;;;;;;;0.60;0.60;;;33.20;52.60;;;;;;5041986;28;20035;-74
2022/08/23 12:38:37;;;;;;;0.82;0.60;;;33.30;52.70;;;;;;5024091;28;20574;-71
2022/08/23 12:41:47;;;;;;;2.03;0.73;;;33.40;52.50;;;;;;5041200;28;20434;-74
2022/08/23 12:44:18;;;;;;;0.60;0.60;;;33.50;52.30;;;;;;5036229;28;20045;-72
2022/08/23 12:46:46;;;;;;;2.05;0.77;;;33.60;52.30;;;;;;5042044;28;20032;-73
2022/08/23 12:49:28;;;;;;;2.88;0.85;;;33.70;52.10;;;;;;5041512;28;20040;-74
2022/08/23 12:51:58;;;;;;;0.55;0.50;;;33.90;51.80;;;;;;5044788;28;20036;-74
2022/08/23 12:54:38;;;;;;;0.88;0.50;;;34.10;51.80;;;;;;5045016;28;20045;-71
2022/08/23 12:57:10;;;;;;;1.13;0.82;;;34.10;51.40;;;;;;5043988;28;20491;-72
2022/08/23 12:59:47;;;;;;;1.63;0.60;;;34.20;51.20;;;;;;5045175;28;20159;-72
2022/08/23 13:02:21;;;;;;;0.93;0.60;;;34.30;51.00;;;;;;5039816;28;20274;-75
2022/08/23 13:04:47;;;;;;;1.90;0.80;;;34.40;50.90;;;;;;5043519;28;20403;-73
2022/08/23 13:07:19;;;;;;;1.30;0.90;;;34.40;50.90;;;;;;5041958;28;20013;-73
2022/08/23 13:09:45;;;;;;;1.15;0.80;;;34.50;50.70;;;;;;5045536;28;20033;-73
2022/08/23 13:12:12;;;;;;;0.93;0.70;;;34.50;50.60;;;;;;5043528;28;20051;-73
2022/08/23 13:14:48;;;;;;;0.90;0.75;;;34.60;50.40;;;;;;5027310;28;20028;-75
2022/08/23 13:17:39;;;;;;;0.50;0.50;;;34.60;50.40;;;;;;5043528;28;20501;-73
2022/08/23 13:20:05;;;;;;;0.73;0.60;;;34.60;50.20;;;;;;5043717;28;20021;-73
2022/08/23 13:22:34;;;;;;;0.80;0.50;;;34.70;50.30;;;;;;5043430;28;20025;-72
2022/08/23 13:25:03;;;;;;;1.60;0.90;;;34.70;50.10;;;;;;5045438;28;20453;-73
2022/08/23 13:27:43;;;;;;;1.52;0.60;;;34.70;50.00;;;;;;5045107;28;20039;-73
2022/08/23 13:30:09;;;;;;;1.05;0.60;;;34.80;49.80;;;;;;5045764;28;20025;-73
2022/08/23 13:32:38;;;;;;;0.93;0.65;;;35.00;49.80;;;;;;5041874;28;20361;-73
2022/08/23 13:35:28;;;;;;;3.00;0.95;;;35.10;49.60;;;;;;5044546;28;20248;-75
2022/08/23 13:37:59;;;;;;;4.90;0.70;;;35.10;49.10;;;;;;5045619;28;20029;-75